ADDS METAR Data INFO
IDs: Format: Raw Decoded Include TAF

Data at: 0431 UTC 28 Jul 2017

KFBR 280415Z AUTO 29004KT 10SM CLR 19/05 A3033 RMK AO2 T01900051
KFBR 280355Z AUTO 33003KT 10SM CLR 19/05 A3033 RMK AO2 T01870051
KFBR 280335Z AUTO 33006KT 10SM CLR 19/05 A3033 RMK AO2 T01900051
KFBR 280315Z AUTO 32007KT 10SM CLR 20/06 A3032 RMK AO2 LTG DSNT SE T01950056
KFBR 280255Z AUTO 33005KT 10SM CLR 20/06 A3031 RMK AO2 T02000059
KFBR 280235Z AUTO 34007KT 10SM CLR 22/06 A3030 RMK AO2 T02190060
KFBR 280215Z AUTO 34013G17KT 10SM CLR 23/06 A3030 RMK AO2 T02310061
KFBR 280155Z AUTO 27014G17KT 10SM CLR 26/00 A3029 RMK AO2 T02550002
KFBR 280135Z AUTO 29014G23KT 10SM CLR 26/M01 A3029 RMK AO2 T02621011
KFBR 280115Z AUTO 30016G24KT 10SM CLR 27/00 A3029 RMK AO2 T02691004
KFBR 280055Z AUTO 27016G24KT 10SM CLR 27/01 A3029 RMK AO2 T02730012
KFBR 280035Z AUTO 28017G26KT 10SM CLR 28/01 A3029 RMK AO2 T02760013
KFBR 280015Z AUTO 26017G25KT 10SM CLR 28/04 A3029 RMK AO2 LTG DSNT N T02790035
KFBR 272355Z AUTO 28014G24KT 10SM CLR 28/03 A3029 RMK AO2 T02820034 10294 20261
KFBR 272335Z AUTO 26017G26KT 10SM CLR 28/03 A3030 RMK AO2 T02820034
KFBR 272315Z AUTO 24018G24KT 10SM CLR 28/04 A3030 RMK AO2 T02840040
KFBR 272255Z AUTO 27018G25KT 10SM CLR 28/04 A3030 RMK AO2 T02840038
KFBR 272235Z AUTO 27017G23KT 10SM SCT080 29/05 A3030 RMK AO2 T02890047
KFBR 272215Z AUTO 26016G24KT 10SM SCT080 SCT110 29/05 A3031 RMK AO2 T02930049
KFBR 272155Z AUTO 27015G22KT 10SM SCT080 SCT100 SCT120 28/06 A3031 RMK AO2 T02810055
KFBR 272135Z AUTO 28012G24KT 10SM SCT080 SCT090 SCT120 29/05 A3031 RMK AO2 T02850054
KFBR 272115Z AUTO 28014G22KT 10SM SCT080 BKN090 29/05 A3032 RMK AO2 T02930052
KFBR 272055Z AUTO 27016G26KT 10SM BKN080 BKN090 29/04 A3032 RMK AO2 T02930038
KFBR 272035Z AUTO 27017G30KT 230V290 10SM SCT070 29/05 A3033 RMK AO2 T02860045
KFBR 272015Z AUTO 25018G25KT 10SM SCT070 SCT100 28/05 A3033 RMK AO2 T02840048
KFBR 271955Z AUTO 27019G23KT 10SM SCT070 SCT100 27/05 A3034 RMK AO2 LTG DSNT N T02680049
KFBR 271935Z AUTO 28014G23KT 10SM SCT070 28/05 A3034 RMK AO2 T02790046
KFBR 271915Z AUTO 26013G18KT 10SM CLR 28/06 A3035 RMK AO2 T02820058
KFBR 271855Z AUTO 26013G20KT 10SM CLR 27/05 A3035 RMK AO2 T02720052
KFBR 271835Z AUTO 25014G19KT 10SM CLR 27/06 A3036 RMK AO2 T02680061
KFBR 271815Z AUTO 26011G23KT 240V300 10SM CLR 26/05 A3036 RMK AO2 T02610053
KFBR 271755Z AUTO 26010G19KT 210V300 10SM SCT065 26/06 A3036 RMK AO2 T02550064 10259 20130
KFBR 271735Z AUTO 24010G18KT 10SM SCT065 26/07 A3037 RMK AO2 T02580065
KFBR 271715Z AUTO 27005G15KT 10SM CLR 25/07 A3037 RMK AO2 T02490072
KFBR 271655Z AUTO 27009G16KT 10SM CLR 24/08 A3038 RMK AO2 T02410075
KFBR 271635Z AUTO 24007KT 10SM CLR 23/08 A3038 RMK AO2 T02320082
KFBR 271615Z AUTO 31005KT 10SM CLR 22/10 A3038 RMK AO2 T02210104
KFBR 271555Z AUTO 31003KT 10SM CLR 21/10 A3038 RMK AO2 T02120100
KFBR 271535Z AUTO 29003KT 10SM CLR 21/10 A3038 RMK AO2 T02050104
KFBR 271515Z AUTO 29004KT 10SM CLR 20/10 A3038 RMK AO2 T01990103
KFBR 271455Z AUTO 27006KT 10SM CLR 19/10 A3038 RMK AO2 T01900104
KFBR 271435Z AUTO 27006KT 10SM CLR 18/10 A3038 RMK AO2 T01800104
KFBR 271415Z AUTO 25009KT 10SM CLR 18/10 A3038 RMK AO2 T01750102
KFBR 271355Z AUTO 26007KT 10SM CLR 17/10 A3038 RMK AO2 T01680102
KFBR 271335Z AUTO 25007KT 10SM CLR 16/10 A3038 RMK AO2 T01590101
KFBR 271315Z AUTO 25008KT 10SM CLR 15/10 A3038 RMK AO2 T01500100
KFBR 271255Z AUTO 25008KT 10SM CLR 14/10 A3038 RMK AO2 T01430097
KFBR 271235Z AUTO 24011KT 10SM CLR 14/10 A3037 RMK AO2 T01380099
KFBR 271215Z AUTO 24010KT 10SM CLR 13/11 A3037 RMK AO2 T01310106
KFBR 271155Z AUTO 26008KT 10SM CLR 13/11 A3037 RMK AO2 T01310105 10186 20127
KFBR 271135Z AUTO 25009KT 10SM CLR 13/11 A3036 RMK AO2 T01300112
KFBR 271115Z AUTO 25009KT 10SM SCT095 13/12 A3036 RMK AO2 T01290116
KFBR 271055Z AUTO 26007KT 10SM BKN095 13/12 A3037 RMK AO2 T01290118
KFBR 271035Z AUTO 27009KT 10SM SCT075 OVC095 13/12 A3037 RMK AO2 T01320121
KFBR 271015Z AUTO 26008KT 10SM SCT075 BKN085 13/12 A3036 RMK AO2 T01330122
KFBR 270955Z AUTO 25006KT 10SM SCT080 13/12 A3037 RMK AO2 T01300117
KFBR 270935Z AUTO 27006KT 10SM SCT080 14/12 A3037 RMK AO2 T01350120
KFBR 270915Z AUTO 20007KT 10SM BKN100 14/12 A3037 RMK AO2 T01410118
KFBR 270855Z AUTO 20009KT 10SM SCT085 OVC100 14/12 A3037 RMK AO2 LTG DSNT E T01430123
KFBR 270835Z AUTO 20009KT 10SM OVC100 14/13 A3037 RMK AO2 LTG DSNT NE SE AND W T01380127
KFBR 270815Z AUTO 19010KT 10SM BKN090 BKN100 14/13 A3037 RMK AO2 LTG DSNT NE T01410130
KFBR 270755Z AUTO 19008KT 10SM OVC090 14/13 A3038 RMK AO2 LTG DSNT SE AND W T01420130
KFBR 270735Z AUTO 21012KT 10SM RA SCT039 BKN075 OVC090 14/12 A3038 RMK AO2 LTG DSNT S T01440120
KFBR 270715Z AUTO 22021G26KT 10SM RA BKN055 BKN065 OVC120 16/11 A3039 RMK AO2 LTG DSNT SW T01580110
KFBR 270655Z AUTO 25015KT 10SM SCT055 BKN120 19/11 A3038 RMK AO2 LTG DSNT S AND SW T01850108
KFBR 270635Z AUTO 25006KT 10SM CLR 18/11 A3037 RMK AO2 LTG DSNT SW T01830109
KFBR 270615Z AUTO 25007KT 10SM VCTS CLR 18/12 A3037 RMK AO2 LTG DSNT SW T01830120
KFBR 270555Z AUTO 26005KT 10SM SCT065 18/12 A3037 RMK AO2 LTG DSNT SW AND W T01840122 10251 20175 402510135
KFBR 270535Z AUTO 25007KT 10SM SCT065 18/13 A3037 RMK AO2 T01790125
KFBR 270515Z AUTO 24007KT 10SM CLR 18/13 A3036 RMK AO2 T01770130
KFBR 270455Z AUTO 24003KT 10SM CLR 18/12 A3036 RMK AO2 LTG DSNT W T01830118
KFBR 270435Z AUTO 00000KT 10SM VCTS BKN060 19/13 A3036 RMK AO2 LTG DSNT W T01900125
KFBR 270415Z AUTO 13003KT 10SM BKN060 21/12 A3035 RMK AO2 T02070119
KFBR 270355Z AUTO 08003KT 10SM SCT070 20/13 A3035 RMK AO2 T01990126
KFBR 270335Z AUTO 04004KT 10SM SCT070 BKN080 BKN090 19/13 A3035 RMK AO2 T01930127
KFBR 270315Z AUTO 00000KT 10SM BKN065 OVC080 20/13 A3035 RMK AO2 T01990133
KFBR 270255Z AUTO 13003KT 10SM SCT065 BKN090 BKN120 21/12 A3034 RMK AO2 LTG DSNT S T02060121
KFBR 270235Z AUTO 08003KT 10SM SCT075 SCT090 21/13 A3033 RMK AO2 LTG DSNT NE AND E T02100125
KFBR 270215Z AUTO 35003KT 10SM SCT065 BKN075 OVC090 22/12 A3033 RMK AO2 LTG DSNT NW T02230124
KFBR 270155Z AUTO 00000KT 10SM OVC060 23/12 A3033 RMK AO2 T02280123
KFBR 270135Z AUTO 00000KT 10SM BKN060 OVC075 23/12 A3033 RMK AO2 T02280122
KFBR 270115Z AUTO 12003KT 10SM BKN060 23/12 A3033 RMK AO2 T02300118
KFBR 270055Z AUTO 11006KT 10SM SCT060 SCT070 24/12 A3033 RMK AO2 T02360116
KFBR 270035Z AUTO 00000KT 10SM SCT065 25/11 A3032 RMK AO2 T02450114
KFBR 270015Z AUTO 09004KT 10SM BKN065 BKN075 25/12 A3033 RMK AO2 LTG DSNT E T02490118
KFBR 262355Z AUTO 09005KT 10SM SCT065 SCT075 SCT095 23/12 A3034 RMK AO2 LTG DSNT S T02310123 10240 20202
KFBR 262335Z AUTO 00000KT 10SM SCT050 SCT070 BKN075 23/12 A3034 RMK AO2 T02340120
KFBR 262315Z AUTO 12005KT 10SM VCTS SCT050 SCT070 BKN080 23/13 A3035 RMK AO2 T02290129
KFBR 262255Z AUTO 00000KT 10SM VCTS SCT050 BKN060 OVC120 23/14 A3035 RMK AO2 LTG DSNT E T02260136
KFBR 262235Z AUTO 10005KT 10SM SCT050 SCT060 BKN110 22/13 A3035 RMK AO2 LTG DSNT SE AND SW T02220132
KFBR 262215Z AUTO 10006KT 10SM SCT041 SCT049 BKN060 23/13 A3036 RMK AO2 T02300132
KFBR 262155Z AUTO 06004KT 10SM SCT041 BKN050 OVC075 22/14 A3037 RMK AO2 LTG DSNT E T02200140
KFBR 262135Z AUTO 10004KT 10SM SCT040 BKN075 OVC080 22/14 A3036 RMK AO2 LTG DSNT NE AND SE T02240141
KFBR 262115Z AUTO 12003KT 10SM -RA SCT040 BKN047 BKN055 21/16 A3037 RMK AO2 LTG DSNT SE T02130159
KFBR 262055Z AUTO 00000KT 10SM -TSRA SCT040 BKN046 OVC070 21/14 A3038 RMK AO2 LTG DSNT SE AND S T02070139
KFBR 262035Z AUTO 33004KT 10SM -RA BKN044 OVC055 22/12 A3038 RMK AO2 LTG DSNT SE T02210116
KFBR 262015Z AUTO 31003KT 10SM SCT043 OVC055 23/11 A3038 RMK AO2 T02250111
KFBR 261955Z AUTO 35008G15KT 10SM BKN049 BKN065 OVC100 23/10 A3038 RMK AO2 T02310100
KFBR 261935Z AUTO 23004KT 10SM SCT047 BKN065 OVC100 24/10 A3038 RMK AO2 T02390102
KFBR 261915Z AUTO 34003KT 10SM SCT047 BKN075 OVC090 23/10 A3038 RMK AO2 LTG DSNT N AND NE T02320095
KFBR 261855Z AUTO 27003KT 10SM SCT046 SCT060 OVC075 22/11 A3039 RMK AO2 LTG DSNT NE T02230107
KFBR 261835Z AUTO 28006KT 10SM SCT042 BKN048 OVC080 22/11 A3038 RMK AO2 T02210112
KFBR 261815Z AUTO 00000KT 10SM SCT037 SCT070 OVC080 23/11 A3038 RMK AO2 T02270112
KFBR 261755Z AUTO 00000KT 10SM SCT033 OVC080 23/12 A3038 RMK AO2 T02260120 10227 20135
KFBR 261735Z AUTO 00000KT 10SM OVC080 22/12 A3039 RMK AO2 T02160124
KFBR 261715Z AUTO 00000KT 10SM OVC080 21/12 A3039 RMK AO2 T02100124
KFBR 261655Z AUTO 26004KT 10SM OVC090 21/13 A3039 RMK AO2 T02060129
KFBR 261635Z AUTO 00000KT 10SM SCT060 SCT075 OVC090 20/13 A3040 RMK AO2 LTG DSNT N T01950128